createdAt,value
2017-06-16T00:02:08.832Z,3.30
2017-06-16T00:04:42.760Z,3.80
2017-06-16T00:07:16.336Z,3.60
2017-06-16T00:09:50.192Z,3.70
2017-06-16T00:12:24.732Z,3.13
2017-06-16T00:14:58.720Z,3.40
2017-06-16T00:17:32.403Z,4.03
2017-06-16T00:20:06.173Z,3.63
2017-06-16T00:22:40.572Z,3.43
2017-06-16T00:25:15.912Z,3.50
2017-06-16T00:27:50.328Z,3.70
2017-06-16T00:30:25.329Z,3.90
2017-06-16T00:32:59.292Z,3.90
2017-06-16T00:35:33.982Z,3.33
2017-06-16T00:38:07.628Z,3.67
2017-06-16T00:40:42.071Z,3.40
2017-06-16T00:43:16.854Z,3.43
2017-06-16T00:45:50.909Z,2.80
2017-06-16T00:48:24.620Z,2.77
2017-06-16T00:50:58.371Z,2.93
2017-06-16T00:53:31.973Z,3.10
2017-06-16T00:56:06.537Z,2.83
2017-06-16T00:58:40.556Z,2.50
2017-06-16T01:01:14.329Z,2.70
2017-06-16T01:03:48.161Z,2.90
2017-06-16T01:06:22.689Z,2.50
2017-06-16T01:08:56.599Z,2.53
2017-06-16T01:11:30.549Z,2.53
2017-06-16T01:14:05.088Z,3.03
2017-06-16T01:16:38.981Z,2.37
2017-06-16T01:19:13.523Z,2.83
2017-06-16T01:21:47.712Z,2.60
2017-06-16T01:24:21.436Z,2.50
2017-06-16T01:26:56.133Z,2.80
2017-06-16T01:29:29.850Z,2.90
2017-06-16T01:32:03.600Z,2.60
2017-06-16T01:34:38.094Z,2.50
2017-06-16T01:37:12.192Z,2.53
2017-06-16T01:39:45.857Z,2.70
2017-06-16T01:42:20.461Z,2.63
2017-06-16T01:44:54.364Z,2.37
2017-06-16T01:47:29.003Z,2.50
2017-06-16T01:50:02.921Z,2.17
2017-06-16T01:52:37.448Z,2.60
2017-06-16T01:55:11.481Z,2.47
2017-06-16T01:57:45.224Z,2.93
2017-06-16T02:00:18.862Z,2.57
2017-06-16T02:02:52.676Z,2.27
2017-06-16T02:05:26.321Z,2.20
2017-06-16T02:08:00.076Z,2.03
2017-06-16T02:10:33.773Z,2.00
2017-06-16T02:13:07.574Z,2.27
2017-06-16T02:15:41.968Z,2.80
2017-06-16T02:18:16.832Z,2.23
2017-06-16T02:20:50.788Z,2.10
2017-06-16T02:23:25.381Z,2.30
2017-06-16T02:26:00.157Z,2.30
2017-06-16T02:28:34.829Z,2.13
2017-06-16T02:31:08.824Z,2.27
2017-06-16T02:33:42.537Z,1.87
2017-06-16T02:36:16.260Z,2.13
2017-06-16T02:38:51.572Z,2.10
2017-06-16T02:41:25.594Z,2.30
2017-06-16T02:43:59.387Z,2.47
2017-06-16T02:46:33.788Z,2.50
2017-06-16T02:49:07.825Z,2.73
2017-06-16T02:51:42.323Z,2.47
2017-06-16T02:54:18.388Z,2.10
2017-06-16T02:56:53.000Z,2.53
2017-06-16T02:59:27.054Z,1.80
2017-06-16T03:02:01.664Z,1.97
2017-06-16T03:04:36.262Z,2.67
2017-06-16T03:07:10.103Z,2.03
2017-06-16T03:09:43.864Z,1.87
2017-06-16T03:12:18.393Z,1.90
2017-06-16T03:14:52.369Z,1.97
2017-06-16T03:17:26.825Z,2.00
2017-06-16T03:20:00.860Z,2.20
2017-06-16T03:22:40.984Z,2.57
2017-06-16T03:25:16.080Z,2.00
2017-06-16T03:27:49.893Z,1.90
2017-06-16T03:30:23.552Z,1.90
2017-06-16T03:32:57.301Z,2.03
2017-06-16T03:35:31.913Z,2.10
2017-06-16T03:38:05.636Z,1.90
2017-06-16T03:40:39.509Z,2.07
2017-06-16T03:43:13.120Z,1.60
2017-06-16T03:45:46.980Z,1.50
2017-06-16T03:48:20.568Z,2.07
2017-06-16T03:50:54.417Z,2.07
2017-06-16T03:53:28.957Z,1.63
2017-06-16T03:56:02.813Z,2.30
2017-06-16T03:58:36.713Z,1.47
2017-06-16T04:01:10.614Z,1.87
2017-06-16T04:03:44.320Z,1.80
2017-06-16T04:06:18.312Z,1.60
2017-06-16T04:08:51.948Z,1.70
2017-06-16T04:11:25.729Z,2.00
2017-06-16T04:13:59.460Z,1.70
2017-06-16T04:16:33.400Z,2.13
2017-06-16T04:19:07.013Z,2.17
2017-06-16T04:21:41.637Z,1.90
2017-06-16T04:24:15.544Z,1.40
2017-06-16T04:26:50.188Z,1.50
2017-06-16T04:29:24.768Z,1.80
2017-06-16T04:31:58.905Z,1.93
2017-06-16T04:34:33.308Z,2.40
2017-06-16T04:37:07.941Z,2.00
2017-06-16T04:39:41.873Z,1.90
2017-06-16T04:42:16.480Z,2.03
2017-06-16T04:44:51.189Z,2.43
2017-06-16T04:47:25.192Z,2.67
2017-06-16T04:49:58.944Z,2.90
2017-06-16T04:52:32.717Z,3.03
2017-06-16T04:55:07.329Z,2.90
2017-06-16T04:57:41.328Z,2.60
2017-06-16T05:00:15.856Z,3.10
2017-06-16T05:02:49.965Z,3.27
2017-06-16T05:05:23.544Z,3.00
2017-06-16T05:07:57.353Z,3.00
2017-06-16T05:10:30.956Z,2.50
2017-06-16T05:13:05.128Z,2.60
2017-06-16T05:15:39.732Z,2.97
2017-06-16T05:18:14.278Z,2.80
2017-06-16T05:20:48.961Z,3.27
2017-06-16T05:23:28.749Z,3.20
2017-06-16T05:26:03.539Z,3.23
2017-06-16T05:28:37.405Z,3.80
2017-06-16T05:31:11.972Z,3.67
2017-06-16T05:33:46.036Z,4.20
2017-06-16T05:36:20.626Z,4.10
2017-06-16T05:38:54.588Z,3.80
2017-06-16T05:41:28.216Z,4.00
2017-06-16T05:44:01.973Z,4.40
2017-06-16T05:46:35.747Z,4.33
2017-06-16T05:49:10.484Z,5.10
2017-06-16T05:51:44.972Z,3.87
2017-06-16T05:54:19.892Z,5.60
2017-06-16T05:56:53.596Z,5.00
2017-06-16T05:59:28.184Z,5.87
2017-06-16T06:02:02.856Z,6.13
2017-06-16T06:04:37.021Z,6.50
2017-06-16T06:07:10.825Z,6.30
2017-06-16T06:09:45.560Z,6.77
2017-06-16T06:12:19.416Z,7.50
2017-06-16T06:14:53.086Z,7.47
2017-06-16T06:17:26.673Z,7.47
2017-06-16T06:20:01.394Z,7.77
2017-06-16T06:22:36.001Z,8.03
2017-06-16T06:25:11.120Z,8.43
2017-06-16T06:27:44.862Z,7.50
2017-06-16T06:30:18.793Z,8.45
2017-06-16T06:32:52.517Z,8.90
2017-06-16T06:35:26.225Z,7.80
2017-06-16T06:37:59.912Z,7.03
2017-06-16T06:40:33.752Z,7.70
2017-06-16T06:43:08.164Z,8.37
2017-06-16T06:45:42.190Z,8.10
2017-06-16T06:48:15.957Z,8.10
2017-06-16T06:50:49.975Z,7.80
2017-06-16T06:53:23.742Z,7.90
2017-06-16T06:55:57.493Z,7.30
2017-06-16T06:58:31.197Z,7.70
2017-06-16T07:01:06.046Z,6.53
2017-06-16T07:03:39.792Z,6.90
2017-06-16T07:06:13.544Z,7.80
2017-06-16T07:08:47.128Z,6.20
2017-06-16T07:11:20.984Z,5.83
2017-06-16T07:13:54.637Z,5.70
2017-06-16T07:16:28.448Z,6.00
2017-06-16T07:19:02.065Z,6.10
2017-06-16T07:21:35.834Z,5.63
2017-06-16T07:24:11.198Z,5.87
2017-06-16T07:26:45.205Z,5.30
2017-06-16T07:29:19.757Z,5.37
2017-06-16T07:31:53.633Z,5.80
2017-06-16T07:34:27.276Z,5.73
2017-06-16T07:37:01.016Z,6.00
2017-06-16T07:39:35.361Z,5.77
2017-06-16T07:42:09.392Z,7.30
2017-06-16T07:44:43.105Z,5.90
2017-06-16T07:47:16.973Z,6.50
2017-06-16T07:49:51.505Z,5.83
2017-06-16T07:52:25.469Z,6.60
2017-06-16T07:54:59.929Z,5.90
2017-06-16T07:57:34.012Z,6.30
2017-06-16T08:00:08.560Z,7.60
2017-06-16T08:02:42.543Z,6.30
2017-06-16T08:05:17.007Z,5.83
2017-06-16T08:07:50.929Z,6.80
2017-06-16T08:10:25.533Z,6.20
2017-06-16T08:13:00.296Z,5.40
2017-06-16T08:15:34.993Z,5.77
2017-06-16T08:18:08.871Z,5.70
2017-06-16T08:20:48.433Z,5.57
2017-06-16T08:23:22.626Z,6.03
2017-06-16T08:25:56.509Z,6.07
2017-06-16T08:28:31.241Z,5.70
2017-06-16T08:31:05.246Z,5.60
2017-06-16T08:33:38.912Z,4.97
2017-06-16T08:36:12.676Z,5.67
2017-06-16T08:38:47.072Z,5.60
2017-06-16T08:41:21.017Z,5.70
2017-06-16T08:43:54.772Z,6.10
2017-06-16T08:46:30.082Z,6.93
2017-06-16T08:49:04.145Z,7.33
2017-06-16T08:51:39.535Z,5.90
2017-06-16T08:54:13.381Z,5.40
2017-06-16T08:56:48.784Z,5.90
2017-06-16T08:59:22.777Z,6.07
2017-06-16T09:01:57.232Z,5.20
2017-06-16T09:04:31.380Z,5.47
2017-06-16T09:07:04.990Z,4.83
2017-06-16T09:09:38.728Z,5.90
2017-06-16T09:12:12.593Z,5.00
2017-06-16T09:14:46.396Z,5.03
2017-06-16T09:17:20.096Z,4.20
2017-06-16T09:19:54.052Z,4.27
2017-06-16T09:22:27.685Z,3.63
2017-06-16T09:25:02.493Z,4.63
2017-06-16T09:27:36.190Z,4.17
2017-06-16T09:30:10.939Z,3.70
2017-06-16T09:32:44.817Z,3.70
2017-06-16T09:35:19.294Z,3.20
2017-06-16T09:37:53.102Z,3.00
2017-06-16T09:40:27.061Z,2.93
2017-06-16T09:43:00.757Z,3.00
2017-06-16T09:45:34.568Z,2.53
2017-06-16T09:48:09.110Z,4.13
2017-06-16T09:50:43.085Z,3.30
2017-06-16T09:53:17.633Z,3.13
2017-06-16T09:55:51.714Z,3.43
2017-06-16T09:58:25.473Z,3.23
2017-06-16T10:01:00.034Z,3.17
2017-06-16T10:03:34.037Z,3.10
2017-06-16T10:06:08.546Z,3.40
2017-06-16T10:08:42.368Z,2.93
2017-06-16T10:11:16.985Z,2.73
2017-06-16T10:13:51.000Z,2.73
2017-06-16T10:16:24.849Z,2.47
2017-06-16T10:18:58.499Z,2.80
2017-06-16T10:21:33.117Z,2.20
2017-06-16T10:24:06.934Z,2.93
2017-06-16T10:26:40.718Z,2.07
2017-06-16T10:29:15.261Z,3.27
2017-06-16T10:31:49.288Z,2.80
2017-06-16T10:34:23.130Z,3.00
2017-06-16T10:36:56.937Z,2.73
2017-06-16T10:39:30.605Z,2.83
2017-06-16T10:42:04.288Z,2.90
2017-06-16T10:44:37.944Z,2.27
2017-06-16T10:47:11.945Z,3.30
2017-06-16T10:49:46.412Z,3.30
2017-06-16T10:52:20.100Z,2.30
2017-06-16T10:54:54.517Z,3.00
2017-06-16T10:57:28.599Z,2.60
2017-06-16T11:00:03.772Z,2.83
2017-06-16T11:02:38.632Z,3.43
2017-06-16T11:05:13.434Z,2.57
2017-06-16T11:07:48.190Z,3.63
2017-06-16T11:10:22.145Z,3.10
2017-06-16T11:12:55.808Z,3.93
2017-06-16T11:15:29.525Z,2.67
2017-06-16T11:18:03.208Z,2.30
2017-06-16T11:20:36.985Z,3.07
2017-06-16T11:23:11.546Z,3.67
2017-06-16T11:25:45.540Z,3.90
2017-06-16T11:28:19.299Z,3.40
2017-06-16T11:30:53.069Z,2.57
2017-06-16T11:33:26.856Z,2.50
2017-06-16T11:36:01.241Z,3.77
2017-06-16T11:38:35.384Z,3.20
2017-06-16T11:41:09.876Z,3.53
2017-06-16T11:43:44.081Z,3.57
2017-06-16T11:46:19.231Z,3.07
2017-06-16T11:48:53.224Z,2.70
2017-06-16T11:51:26.858Z,3.20
2017-06-16T11:54:02.155Z,3.17
2017-06-16T11:56:37.012Z,2.53
2017-06-16T11:59:10.909Z,2.97
2017-06-16T12:01:44.569Z,3.57
2017-06-16T12:04:18.389Z,3.10
2017-06-16T12:06:52.865Z,2.80
2017-06-16T12:09:27.736Z,2.50
2017-06-16T12:12:01.681Z,2.63
2017-06-16T12:14:35.493Z,2.90
2017-06-16T12:17:10.026Z,2.47
2017-06-16T12:19:44.040Z,2.33
2017-06-16T12:22:18.548Z,2.60
2017-06-16T12:24:52.444Z,2.80
2017-06-16T12:27:27.054Z,3.03
2017-06-16T12:30:00.885Z,2.67
2017-06-16T12:32:34.504Z,3.20
2017-06-16T12:35:08.477Z,3.30
2017-06-16T12:37:42.160Z,3.03
2017-06-16T12:40:15.981Z,2.80
2017-06-16T12:42:49.672Z,3.13
2017-06-16T12:45:23.598Z,3.27
2017-06-16T12:47:57.244Z,2.40
2017-06-16T12:50:31.993Z,2.80
2017-06-16T12:53:05.901Z,2.73
2017-06-16T12:55:40.922Z,2.67
2017-06-16T12:58:14.538Z,2.90
2017-06-16T13:00:49.888Z,2.90
2017-06-16T13:03:23.693Z,2.77
2017-06-16T13:05:58.100Z,2.90
2017-06-16T13:08:32.146Z,2.70
2017-06-16T13:11:06.721Z,2.90
2017-06-16T13:13:40.554Z,2.40
2017-06-16T13:16:15.367Z,2.53
2017-06-16T13:18:49.062Z,3.13
2017-06-16T13:21:22.720Z,3.07
2017-06-16T13:23:56.498Z,3.47
2017-06-16T13:26:32.349Z,2.90
2017-06-16T13:29:06.122Z,3.00
2017-06-16T13:31:40.792Z,3.27
2017-06-16T13:34:14.791Z,3.77
2017-06-16T13:36:48.648Z,3.53
2017-06-16T13:39:23.177Z,3.27
2017-06-16T13:41:57.241Z,3.67
2017-06-16T13:44:31.713Z,3.70
2017-06-16T13:47:05.756Z,3.70
2017-06-16T13:49:40.335Z,3.87
2017-06-16T13:52:14.158Z,3.40
2017-06-16T13:54:48.813Z,3.10
2017-06-16T13:57:22.687Z,4.07
2017-06-16T13:59:56.441Z,3.97
2017-06-16T14:02:30.194Z,3.50
2017-06-16T14:05:03.875Z,3.20
2017-06-16T14:07:37.689Z,3.80
2017-06-16T14:10:11.357Z,3.93
2017-06-16T14:12:45.982Z,3.87
2017-06-16T14:15:19.881Z,4.10
2017-06-16T14:17:54.397Z,3.60
2017-06-16T14:20:28.988Z,3.57
2017-06-16T14:23:03.047Z,3.70
2017-06-16T14:25:36.698Z,3.60
2017-06-16T14:28:11.452Z,3.40
2017-06-16T14:30:45.384Z,3.77
2017-06-16T14:33:19.173Z,3.37
2017-06-16T14:35:52.996Z,3.40
2017-06-16T14:38:26.624Z,2.90
2017-06-16T14:41:01.096Z,3.17
2017-06-16T14:43:36.352Z,2.90
2017-06-16T14:46:10.840Z,3.67
2017-06-16T14:48:44.712Z,3.30
2017-06-16T14:51:19.232Z,3.70
2017-06-16T14:53:54.014Z,3.07
2017-06-16T14:56:28.460Z,3.17
2017-06-16T14:59:02.365Z,3.33
2017-06-16T15:01:36.892Z,2.60
2017-06-16T15:04:10.747Z,3.50
2017-06-16T15:06:44.425Z,4.00
2017-06-16T15:09:19.036Z,3.87
2017-06-16T15:11:53.031Z,3.20
2017-06-16T15:14:27.668Z,3.90
2017-06-16T15:17:01.377Z,3.87
2017-06-16T15:19:35.117Z,3.17
2017-06-16T15:22:14.381Z,3.27
2017-06-16T15:24:48.540Z,3.43
2017-06-16T15:27:22.901Z,3.27
2017-06-16T15:29:56.886Z,3.23
2017-06-16T15:32:31.366Z,2.87
2017-06-16T15:35:05.237Z,3.00
2017-06-16T15:37:39.761Z,3.13
2017-06-16T15:40:13.680Z,3.10
2017-06-16T15:42:47.298Z,3.13
2017-06-16T15:45:21.257Z,2.83
2017-06-16T15:47:54.956Z,3.40
2017-06-16T15:50:28.873Z,3.30
2017-06-16T15:53:03.307Z,3.10
2017-06-16T15:55:38.037Z,2.80
2017-06-16T15:58:12.560Z,2.73
2017-06-16T16:00:46.697Z,2.90
2017-06-16T16:03:21.192Z,2.47
2017-06-16T16:05:55.289Z,3.67
2017-06-16T16:08:28.888Z,2.97
2017-06-16T16:11:02.808Z,2.80
2017-06-16T16:13:37.228Z,3.67
2017-06-16T16:16:12.246Z,3.30
2017-06-16T16:18:46.320Z,3.07
2017-06-16T16:21:20.117Z,3.63
2017-06-16T16:23:54.724Z,3.23
2017-06-16T16:26:28.875Z,2.60
2017-06-16T16:29:04.272Z,3.30
2017-06-16T16:31:38.462Z,3.20
2017-06-16T16:34:13.011Z,3.10
2017-06-16T16:36:47.368Z,2.70
2017-06-16T16:39:20.985Z,2.90
2017-06-16T16:41:55.694Z,3.90
2017-06-16T16:44:29.577Z,2.07
2017-06-16T16:47:03.476Z,2.43
2017-06-16T16:49:37.939Z,3.43
2017-06-16T16:52:12.485Z,2.80
2017-06-16T16:54:46.224Z,3.20
2017-06-16T16:57:20.077Z,3.70
2017-06-16T16:59:53.777Z,2.70
2017-06-16T17:02:28.298Z,2.50
2017-06-16T17:05:02.207Z,4.00
2017-06-16T17:07:36.829Z,3.57
2017-06-16T17:10:10.655Z,3.10
2017-06-16T17:12:45.149Z,3.10
2017-06-16T17:15:19.080Z,3.10
2017-06-16T17:17:53.801Z,3.60
2017-06-16T17:20:27.711Z,2.67
2017-06-16T17:23:02.424Z,3.30
2017-06-16T17:25:36.232Z,2.63
2017-06-16T17:28:10.124Z,3.33
2017-06-16T17:30:44.627Z,3.40
2017-06-16T17:33:18.737Z,3.23
2017-06-16T17:35:53.270Z,3.30
2017-06-16T17:38:27.327Z,3.07
2017-06-16T17:41:01.007Z,2.50
2017-06-16T17:43:36.054Z,2.97
2017-06-16T17:46:11.457Z,3.57
2017-06-16T17:48:45.441Z,3.10
2017-06-16T17:51:19.169Z,3.70
2017-06-16T17:53:53.746Z,2.70
2017-06-16T17:56:27.753Z,2.67
2017-06-16T17:59:01.574Z,3.10
2017-06-16T18:01:35.271Z,2.90
2017-06-16T18:04:09.328Z,4.00
2017-06-16T18:06:43.121Z,3.75
2017-06-16T18:09:16.896Z,2.97
2017-06-16T18:11:50.516Z,3.50
2017-06-16T18:14:25.078Z,3.00
2017-06-16T18:16:59.700Z,2.55
2017-06-16T18:19:33.640Z,3.20
2017-06-16T18:22:09.049Z,2.33
2017-06-16T18:24:43.068Z,3.23
2017-06-16T18:27:17.714Z,2.50
2017-06-16T18:29:52.364Z,2.67
2017-06-16T18:32:27.133Z,2.47
2017-06-16T18:35:01.221Z,2.70
2017-06-16T18:37:35.772Z,2.40
2017-06-16T18:40:09.596Z,2.73
2017-06-16T18:42:44.096Z,3.40
2017-06-16T18:45:18.181Z,2.57
2017-06-16T18:47:51.865Z,2.90
2017-06-16T18:50:25.712Z,2.20
2017-06-16T18:53:00.137Z,2.57
2017-06-16T18:55:35.320Z,2.30
2017-06-16T18:58:09.893Z,2.23
2017-06-16T19:00:43.881Z,2.43
2017-06-16T19:03:17.765Z,2.17
2017-06-16T19:05:51.649Z,2.60
2017-06-16T19:08:26.173Z,2.07
2017-06-16T19:11:00.717Z,2.07
2017-06-16T19:13:34.725Z,1.87
2017-06-16T19:16:08.496Z,2.23
2017-06-16T19:18:42.104Z,2.53
2017-06-16T19:21:16.052Z,2.07
2017-06-16T19:23:49.665Z,2.43
2017-06-16T19:26:23.597Z,1.80
2017-06-16T19:28:58.164Z,2.07
2017-06-16T19:31:32.029Z,2.13
2017-06-16T19:34:05.697Z,2.40
2017-06-16T19:36:39.456Z,1.80
2017-06-16T19:39:13.109Z,2.90
2017-06-16T19:41:47.739Z,2.60
2017-06-16T19:44:22.200Z,2.07
2017-06-16T19:46:56.181Z,2.47
2017-06-16T19:49:29.972Z,2.80
2017-06-16T19:52:03.765Z,2.00
2017-06-16T19:54:38.446Z,1.87
2017-06-16T19:57:13.481Z,2.20
2017-06-16T19:59:47.256Z,2.00
2017-06-16T20:02:21.221Z,2.10
2017-06-16T20:04:54.993Z,2.13
2017-06-16T20:07:29.673Z,2.10
2017-06-16T20:10:04.361Z,1.80
2017-06-16T20:12:38.512Z,2.20
2017-06-16T20:15:12.988Z,2.10
2017-06-16T20:17:46.941Z,1.87
2017-06-16T20:20:21.521Z,2.13
2017-06-16T20:22:55.873Z,2.00
2017-06-16T20:25:29.570Z,2.20
2017-06-16T20:28:03.526Z,2.43
2017-06-16T20:30:38.169Z,2.83
2017-06-16T20:33:12.241Z,2.23
2017-06-16T20:35:45.883Z,1.97
2017-06-16T20:38:19.569Z,2.20
2017-06-16T20:40:54.101Z,2.23
2017-06-16T20:43:28.192Z,2.50
2017-06-16T20:46:01.816Z,2.30
2017-06-16T20:48:35.785Z,2.37
2017-06-16T20:51:09.572Z,1.97
2017-06-16T20:53:44.089Z,2.47
2017-06-16T20:56:18.005Z,2.37
2017-06-16T20:58:51.914Z,1.90
2017-06-16T21:01:25.633Z,1.90
2017-06-16T21:03:59.485Z,2.23
2017-06-16T21:06:33.249Z,2.73
2017-06-16T21:09:07.166Z,2.57
2017-06-16T21:11:40.833Z,2.50
2017-06-16T21:14:15.492Z,3.07
2017-06-16T21:16:50.061Z,2.57
2017-06-16T21:19:25.033Z,2.40
2017-06-16T21:22:04.680Z,2.30
2017-06-16T21:24:39.620Z,2.27
2017-06-16T21:27:14.086Z,2.70
2017-06-16T21:29:48.022Z,2.23
2017-06-16T21:32:21.802Z,3.50
2017-06-16T21:34:55.497Z,3.67
2017-06-16T21:37:29.052Z,2.90
2017-06-16T21:40:02.964Z,2.80
2017-06-16T21:42:37.428Z,2.70
2017-06-16T21:45:11.512Z,2.60
2017-06-16T21:47:45.961Z,2.60
2017-06-16T21:50:19.944Z,2.70
2017-06-16T21:52:54.392Z,2.33
2017-06-16T21:55:29.613Z,2.10
2017-06-16T21:58:04.049Z,3.03
2017-06-16T22:00:38.824Z,2.93
2017-06-16T22:03:12.742Z,3.10
2017-06-16T22:05:47.272Z,2.77
2017-06-16T22:08:21.632Z,2.60
2017-06-16T22:10:55.724Z,3.10
2017-06-16T22:13:29.433Z,2.60
2017-06-16T22:16:03.305Z,3.03
2017-06-16T22:18:37.696Z,3.43
2017-06-16T22:21:11.621Z,3.07
2017-06-16T22:23:45.391Z,3.30
2017-06-16T22:26:20.000Z,3.40
2017-06-16T22:28:53.773Z,2.77
2017-06-16T22:31:28.276Z,3.67
2017-06-16T22:34:02.133Z,3.07
2017-06-16T22:36:35.980Z,3.33
2017-06-16T22:39:10.577Z,2.90
2017-06-16T22:41:44.677Z,3.87
2017-06-16T22:44:18.299Z,3.40
2017-06-16T22:46:52.089Z,3.37
2017-06-16T22:49:25.796Z,3.00
2017-06-16T22:51:59.641Z,3.10
2017-06-16T22:54:33.352Z,2.97
2017-06-16T22:57:08.046Z,3.20
2017-06-16T22:59:41.741Z,3.20
2017-06-16T23:02:15.598Z,2.77
2017-06-16T23:04:49.373Z,3.00
2017-06-16T23:07:23.056Z,3.20
2017-06-16T23:09:56.702Z,4.70
2017-06-16T23:12:30.406Z,6.27
2017-06-16T23:15:04.180Z,5.30
2017-06-16T23:17:37.864Z,6.00
2017-06-16T23:20:12.400Z,5.40
2017-06-16T23:22:47.370Z,5.67
2017-06-16T23:25:21.964Z,5.40
2017-06-16T23:27:56.609Z,4.80
2017-06-16T23:30:30.629Z,5.50
2017-06-16T23:33:04.442Z,4.93
2017-06-16T23:35:38.116Z,4.33
2017-06-16T23:38:11.904Z,4.20
2017-06-16T23:40:46.332Z,5.13
2017-06-16T23:43:20.426Z,4.67
2017-06-16T23:45:54.862Z,5.20
2017-06-16T23:48:28.954Z,4.90
2017-06-16T23:51:02.576Z,5.17
2017-06-16T23:53:37.341Z,5.47
2017-06-16T23:56:11.506Z,4.90
2017-06-16T23:58:45.148Z,5.20
